Time;durP1;ratioP1;P1;durP2;ratioP2;P2;SDS_P1;SDS_P2;PMS_P1;PMS_P2;Temp;Humidity;BMP_temperature;BMP_pressure;BME280_temperature;BME280_humidity;BME280_pressure;Samples;Min_cycle;Max_cycle;Signal;HPM_P1;HPM_P2
2021/08/05 00:00:12;;;;;;;10.30;8.20;;;26.00;66.70;;;;;;1886296;76;21029;-55
2021/08/05 00:02:42;;;;;;;11.20;8.13;;;26.00;67.00;;;;;;1886221;76;21080;-55
2021/08/05 00:05:12;;;;;;;10.63;7.78;;;26.00;67.20;;;;;;1886190;76;21147;-55
2021/08/05 00:07:41;;;;;;;12.82;8.25;;;26.10;67.10;;;;;;1886206;76;21056;-55
2021/08/05 00:10:11;;;;;;;11.20;8.10;;;26.10;67.10;;;;;;1886145;76;21065;-55
2021/08/05 00:12:40;;;;;;;12.90;8.80;;;26.10;67.20;;;;;;1886279;76;21066;-55
2021/08/05 00:15:10;;;;;;;11.25;8.18;;;26.10;67.20;;;;;;1886339;76;21111;-55
2021/08/05 00:17:40;;;;;;;9.78;8.78;;;26.10;67.10;;;;;;1886201;76;21026;-55
2021/08/05 00:20:10;;;;;;;9.83;8.35;;;26.20;67.10;;;;;;1886241;76;21116;-55
2021/08/05 00:22:40;;;;;;;9.68;8.38;;;26.20;67.10;;;;;;1886265;76;21095;-55
2021/08/05 00:25:10;;;;;;;10.25;7.92;;;26.20;67.10;;;;;;1886316;76;21108;-55
2021/08/05 00:27:39;;;;;;;12.47;8.93;;;26.20;67.10;;;;;;1886140;76;21013;-55
2021/08/05 00:30:10;;;;;;;10.60;8.90;;;26.20;67.00;;;;;;1886198;76;21045;-55
2021/08/05 00:32:39;;;;;;;13.80;9.20;;;26.20;67.00;;;;;;1886165;76;21014;-55
2021/08/05 00:35:09;;;;;;;12.55;9.03;;;26.10;67.20;;;;;;1886177;76;21091;-55
2021/08/05 00:37:39;;;;;;;13.40;8.73;;;26.10;67.40;;;;;;1886351;76;21095;-55
2021/08/05 00:40:09;;;;;;;12.20;9.73;;;26.00;67.40;;;;;;1886356;76;21065;-55
2021/08/05 00:42:38;;;;;;;15.58;10.35;;;26.00;67.40;;;;;;1886296;76;21154;-55
2021/08/05 00:45:09;;;;;;;15.28;9.30;;;26.00;67.40;;;;;;1886330;76;21046;-55
2021/08/05 00:47:38;;;;;;;11.63;10.18;;;26.00;67.60;;;;;;1886226;76;21119;-55
2021/08/05 00:50:08;;;;;;;13.48;10.65;;;25.90;67.70;;;;;;1886379;76;21111;-55
2021/08/05 00:52:39;;;;;;;12.90;9.50;;;25.80;67.80;;;;;;1886296;76;21053;-55
2021/08/05 00:55:09;;;;;;;12.00;9.95;;;25.80;68.10;;;;;;1886418;76;21053;-55
2021/08/05 00:57:38;;;;;;;13.78;10.00;;;25.80;68.10;;;;;;1886302;76;21029;-55
2021/08/05 01:00:10;;;;;;;12.98;10.25;;;25.80;68.20;;;;;;1886278;76;21049;-55
2021/08/05 01:02:42;;;;;;;14.23;9.90;;;25.80;68.20;;;;;;1886301;76;21118;-55
2021/08/05 01:05:12;;;;;;;11.90;9.70;;;25.70;68.20;;;;;;1882321;76;21608;-55
2021/08/05 01:07:47;;;;;;;12.05;9.43;;;25.60;68.40;;;;;;1886317;76;21155;-55
2021/08/05 01:10:18;;;;;;;11.50;9.25;;;25.50;68.70;;;;;;1885731;76;21038;-55
2021/08/05 01:13:08;;;;;;;13.10;10.23;;;25.50;68.80;;;;;;1886302;76;21017;-55
2021/08/05 01:15:38;;;;;;;10.60;8.90;;;25.50;68.90;;;;;;1886045;76;21088;-55
2021/08/05 01:18:15;;;;;;;10.88;8.73;;;25.50;68.90;;;;;;1886270;76;21109;-55
2021/08/05 01:20:46;;;;;;;11.93;9.90;;;25.60;69.10;;;;;;1884532;76;21049;-55
2021/08/05 01:23:42;;;;;;;10.70;9.10;;;25.60;68.90;;;;;;1886259;76;21124;-55
2021/08/05 01:26:33;;;;;;;14.30;9.55;;;25.60;68.80;;;;;;1870296;76;21025;-55
2021/08/05 01:29:05;;;;;;;15.53;10.18;;;25.70;68.70;;;;;;1886229;76;21119;-55
2021/08/05 01:31:35;;;;;;;13.83;10.32;;;25.70;68.50;;;;;;1886260;76;21021;-55
2021/08/05 01:34:05;;;;;;;20.95;10.53;;;25.70;68.50;;;;;;1886273;76;21135;-55
2021/08/05 01:36:35;;;;;;;11.85;9.25;;;25.60;68.50;;;;;;1886312;76;21041;-55
2021/08/05 01:39:04;;;;;;;13.10;9.03;;;25.70;69.30;;;;;;1886384;76;21037;-55
2021/08/05 01:41:36;;;;;;;9.90;8.80;;;25.60;68.80;;;;;;1886360;76;21123;-55
2021/08/05 01:44:08;;;;;;;11.48;9.60;;;25.70;68.60;;;;;;1886261;76;21365;-55
2021/08/05 01:46:39;;;;;;;12.63;9.58;;;25.60;68.30;;;;;;1884864;76;21594;-55
2021/08/05 01:49:08;;;;;;;11.95;9.58;;;25.60;68.60;;;;;;1886357;76;21034;-55
2021/08/05 01:51:38;;;;;;;13.58;9.08;;;25.50;68.70;;;;;;1886201;76;21030;-55
2021/08/05 01:54:08;;;;;;;11.90;9.90;;;25.40;68.60;;;;;;1886275;76;21065;-55
2021/08/05 01:56:37;;;;;;;13.95;9.20;;;25.40;68.70;;;;;;1886319;76;21092;-55
2021/08/05 01:59:07;;;;;;;15.83;10.35;;;25.40;68.80;;;;;;1886269;76;21111;-55
2021/08/05 02:01:37;;;;;;;12.68;9.33;;;25.40;68.70;;;;;;1886316;76;21026;-55
2021/08/05 02:04:26;;;;;;;13.50;9.30;;;25.40;68.70;;;;;;1886363;76;21010;-55
2021/08/05 02:07:03;;;;;;;19.57;11.40;;;25.30;69.00;;;;;;1886336;76;21029;-55
2021/08/05 02:09:35;;;;;;;13.40;9.80;;;25.30;69.10;;;;;;1883965;76;21073;-55
2021/08/05 02:12:06;;;;;;;13.22;9.53;;;25.30;69.00;;;;;;1885612;75;21053;-55
2021/08/05 02:14:36;;;;;;;15.80;8.63;;;25.30;68.80;;;;;;1886262;76;21120;-55
2021/08/05 02:17:07;;;;;;;25.37;10.80;;;25.30;69.00;;;;;;1886264;76;21045;-55
2021/08/05 02:19:38;;;;;;;17.30;10.25;;;25.30;68.90;;;;;;1886367;76;20990;-55
2021/08/05 02:22:08;;;;;;;27.75;12.30;;;25.20;69.10;;;;;;1886339;76;20998;-55
2021/08/05 02:24:38;;;;;;;19.50;10.72;;;25.30;69.20;;;;;;1886277;76;21116;-55
2021/08/05 02:27:07;;;;;;;16.70;9.48;;;25.30;69.30;;;;;;1886226;76;21099;-55
2021/08/05 02:29:37;;;;;;;18.23;9.68;;;25.30;69.30;;;;;;1886346;76;21037;-55
2021/08/05 02:32:08;;;;;;;14.68;10.55;;;25.40;69.20;;;;;;1886298;76;21110;-55
2021/08/05 02:34:38;;;;;;;18.60;11.28;;;25.40;69.00;;;;;;1886285;76;21147;-55
2021/08/05 02:37:07;;;;;;;26.35;9.78;;;25.40;68.90;;;;;;1886385;76;21037;-55
2021/08/05 02:39:37;;;;;;;37.40;11.00;;;25.30;68.90;;;;;;1886351;76;21129;-55
2021/08/05 02:42:08;;;;;;;82.27;16.50;;;25.40;69.10;;;;;;1877712;76;21065;-55
2021/08/05 02:44:39;;;;;;;43.45;12.40;;;25.40;69.00;;;;;;1872100;77;21033;-55
2021/08/05 02:47:09;;;;;;;28.05;11.45;;;25.30;69.00;;;;;;1871862;77;21010;-55
2021/08/05 02:49:39;;;;;;;24.37;9.83;;;25.20;69.10;;;;;;1871894;77;21111;-55
2021/08/05 02:52:09;;;;;;;13.00;9.25;;;25.20;69.40;;;;;;1871809;77;21025;-55
2021/08/05 02:54:40;;;;;;;17.52;9.55;;;25.20;69.70;;;;;;1872019;77;21029;-55
2021/08/05 02:57:09;;;;;;;19.80;9.13;;;25.20;69.70;;;;;;1871944;77;21053;-55
2021/08/05 02:59:39;;;;;;;15.53;9.55;;;25.30;69.50;;;;;;1871968;77;21039;-55
2021/08/05 03:02:08;;;;;;;14.95;10.10;;;25.40;69.50;;;;;;1871943;77;21033;-55
2021/08/05 03:04:38;;;;;;;13.98;9.83;;;25.40;69.30;;;;;;1871826;77;21456;-55
2021/08/05 03:07:09;;;;;;;17.40;11.20;;;25.50;69.10;;;;;;1871900;77;21139;-55
2021/08/05 03:09:39;;;;;;;18.40;11.63;;;25.50;69.00;;;;;;1871845;77;21041;-55
2021/08/05 03:12:09;;;;;;;16.67;11.18;;;25.40;69.00;;;;;;1871846;77;21032;-55
2021/08/05 03:14:38;;;;;;;17.50;11.00;;;25.40;69.40;;;;;;1871833;77;21029;-55
2021/08/05 03:17:08;;;;;;;19.60;10.85;;;25.40;69.40;;;;;;1871839;77;21111;-55
2021/08/05 03:19:38;;;;;;;17.75;11.65;;;25.50;69.50;;;;;;1871843;77;21041;-55
2021/08/05 03:22:08;;;;;;;19.80;11.50;;;25.50;69.40;;;;;;1871828;77;21029;-55
2021/08/05 03:24:37;;;;;;;13.90;10.13;;;25.60;69.00;;;;;;1871931;77;21107;-55
2021/08/05 03:27:07;;;;;;;15.13;10.72;;;25.60;69.00;;;;;;1871781;77;21045;-55
2021/08/05 03:29:36;;;;;;;17.23;10.25;;;25.60;69.20;;;;;;1871865;77;21467;-55
2021/08/05 03:32:06;;;;;;;13.25;10.65;;;25.50;69.50;;;;;;1871897;77;21017;-55
2021/08/05 03:34:36;;;;;;;16.50;10.88;;;25.60;69.70;;;;;;1871946;77;21119;-55
2021/08/05 03:37:05;;;;;;;19.67;11.57;;;25.60;69.40;;;;;;1871879;77;21037;-55
2021/08/05 03:39:34;;;;;;;16.93;10.70;;;25.80;69.30;;;;;;1871829;77;21032;-55
2021/08/05 03:42:04;;;;;;;15.65;10.72;;;25.80;69.20;;;;;;1876845;76;21112;-55
2021/08/05 03:44:34;;;;;;;16.73;11.25;;;25.90;69.00;;;;;;1886210;76;21089;-55
2021/08/05 03:47:03;;;;;;;15.38;10.65;;;26.00;68.80;;;;;;1886361;76;21213;-55
2021/08/05 03:49:32;;;;;;;18.27;11.20;;;26.00;68.80;;;;;;1886454;76;21009;-55
2021/08/05 03:52:01;;;;;;;18.27;10.48;;;26.00;68.70;;;;;;1886256;76;21099;-55
2021/08/05 03:54:30;;;;;;;16.15;9.85;;;26.10;68.50;;;;;;1886394;76;21523;-55
2021/08/05 03:57:00;;;;;;;14.28;10.65;;;26.20;68.30;;;;;;1886311;76;21010;-55
2021/08/05 03:59:29;;;;;;;17.42;11.40;;;26.30;68.20;;;;;;1886287;76;21045;-55
2021/08/05 04:01:59;;;;;;;19.12;12.00;;;26.40;67.80;;;;;;1886435;76;21065;-55
2021/08/05 04:04:28;;;;;;;19.67;11.08;;;26.40;67.60;;;;;;1886324;76;21033;-55
2021/08/05 04:06:57;;;;;;;14.35;10.63;;;26.40;67.60;;;;;;1886194;76;21030;-55
2021/08/05 04:09:27;;;;;;;14.45;9.55;;;26.50;67.60;;;;;;1886302;76;21030;-55
2021/08/05 04:11:56;;;;;;;13.28;10.23;;;26.60;67.40;;;;;;1886180;76;21088;-55
2021/08/05 04:14:26;;;;;;;16.45;10.40;;;26.70;67.00;;;;;;1886205;76;21465;-55
2021/08/05 04:16:55;;;;;;;11.10;9.60;;;26.80;66.60;;;;;;1886282;76;21006;-55
2021/08/05 04:19:26;;;;;;;18.90;11.68;;;26.90;66.30;;;;;;1886304;76;21034;-55
2021/08/05 04:21:55;;;;;;;12.80;10.85;;;26.90;66.10;;;;;;1886336;76;21014;-55
2021/08/05 04:24:25;;;;;;;11.30;9.35;;;26.90;65.80;;;;;;1886271;76;21088;-55
2021/08/05 04:26:54;;;;;;;24.95;12.65;;;27.00;65.70;;;;;;1886172;76;21044;-55
2021/08/05 04:29:23;;;;;;;15.03;9.83;;;27.10;65.80;;;;;;1886208;76;21151;-55
2021/08/05 04:31:53;;;;;;;15.68;9.80;;;27.20;65.60;;;;;;1886366;76;21076;-55
2021/08/05 04:34:22;;;;;;;15.75;10.53;;;27.30;65.60;;;;;;1886377;76;21047;-55
2021/08/05 04:36:52;;;;;;;16.42;10.85;;;27.30;65.00;;;;;;1886255;76;21049;-55
2021/08/05 04:39:21;;;;;;;13.05;10.23;;;27.40;64.90;;;;;;1886335;76;21033;-55
2021/08/05 04:41:51;;;;;;;21.62;10.20;;;27.50;64.50;;;;;;1886350;76;21084;-55
2021/08/05 04:44:21;;;;;;;13.98;9.48;;;27.50;64.00;;;;;;1886256;76;21038;-55
2021/08/05 04:46:50;;;;;;;18.60;10.38;;;27.50;63.90;;;;;;1886272;76;21038;-55
2021/08/05 04:49:20;;;;;;;15.98;10.53;;;27.50;63.80;;;;;;1886257;76;21038;-55
2021/08/05 04:51:53;;;;;;;15.30;11.18;;;27.50;63.60;;;;;;1886220;76;21037;-55
2021/08/05 04:54:20;;;;;;;11.90;9.73;;;27.50;63.40;;;;;;1886157;76;21034;-55
2021/08/05 04:56:50;;;;;;;24.25;11.38;;;27.60;63.60;;;;;;1886231;76;21034;-55
2021/08/05 04:59:19;;;;;;;14.10;10.28;;;27.60;63.60;;;;;;1886331;76;21038;-55
2021/08/05 05:01:49;;;;;;;13.45;10.35;;;27.70;63.50;;;;;;1886100;76;21075;-55
2021/08/05 05:04:18;;;;;;;15.70;10.18;;;27.80;63.30;;;;;;1886187;76;21115;-55
2021/08/05 05:06:48;;;;;;;18.20;11.10;;;27.90;63.20;;;;;;1886109;76;21037;-55
2021/08/05 05:09:17;;;;;;;16.12;10.72;;;28.00;62.90;;;;;;1886278;76;21029;-55
2021/08/05 05:11:47;;;;;;;20.95;12.20;;;28.00;62.40;;;;;;1886320;76;21025;-55
2021/08/05 05:14:17;;;;;;;25.60;11.83;;;28.10;62.40;;;;;;1886131;76;21033;-55
2021/08/05 05:16:46;;;;;;;20.40;12.75;;;28.10;62.30;;;;;;1886209;76;21038;-55
2021/08/05 05:19:16;;;;;;;24.07;14.58;;;28.20;62.20;;;;;;1886219;76;21107;-55
2021/08/05 05:21:45;;;;;;;34.65;18.75;;;28.30;62.10;;;;;;1886181;76;21124;-55
2021/08/05 05:24:14;;;;;;;32.83;17.95;;;28.40;61.90;;;;;;1886209;76;21037;-55
2021/08/05 05:26:44;;;;;;;38.13;21.07;;;28.40;61.80;;;;;;1886091;76;21061;-55
2021/08/05 05:29:14;;;;;;;28.40;17.60;;;28.40;61.40;;;;;;1886179;76;21107;-55
2021/08/05 05:31:43;;;;;;;25.82;15.50;;;28.50;61.40;;;;;;1886162;76;21029;-55
2021/08/05 05:34:12;;;;;;;23.98;13.25;;;28.60;61.40;;;;;;1886220;76;21006;-55
2021/08/05 05:36:41;;;;;;;24.95;13.58;;;28.60;61.10;;;;;;1886274;76;21033;-55
2021/08/05 05:39:11;;;;;;;26.77;15.20;;;28.70;61.10;;;;;;1886239;76;21125;-55
2021/08/05 05:41:40;;;;;;;24.23;14.68;;;28.70;60.90;;;;;;1886120;76;21113;-55
2021/08/05 05:44:10;;;;;;;23.05;15.50;;;28.80;60.60;;;;;;1876219;76;21132;-55
2021/08/05 05:46:39;;;;;;;28.83;16.10;;;28.80;60.30;;;;;;1871672;77;21065;-55
2021/08/05 05:49:09;;;;;;;37.63;19.45;;;28.80;60.10;;;;;;1871802;76;21037;-55
2021/08/05 05:51:38;;;;;;;37.78;19.95;;;28.90;59.80;;;;;;1871825;77;21099;-55
2021/08/05 05:54:07;;;;;;;38.55;21.95;;;28.90;59.90;;;;;;1871707;77;21105;-55
2021/08/05 05:56:36;;;;;;;44.83;21.85;;;29.00;59.70;;;;;;1871865;77;21090;-55
2021/08/05 05:59:06;;;;;;;44.15;23.57;;;29.10;59.70;;;;;;1871779;77;21025;-55
2021/08/05 06:01:35;;;;;;;35.88;21.57;;;29.20;59.60;;;;;;1871757;77;21025;-55
2021/08/05 06:04:05;;;;;;;28.20;16.52;;;29.30;59.30;;;;;;1871765;77;21522;-55
2021/08/05 06:06:34;;;;;;;35.70;18.57;;;29.30;59.10;;;;;;1871877;76;21084;-55
2021/08/05 06:09:03;;;;;;;37.90;20.30;;;29.40;59.00;;;;;;1871859;76;21037;-55
2021/08/05 06:11:33;;;;;;;26.23;14.45;;;29.40;58.80;;;;;;1871912;77;21492;-55
2021/08/05 06:14:02;;;;;;;31.12;18.62;;;29.40;58.80;;;;;;1871804;77;21110;-55
2021/08/05 06:16:33;;;;;;;33.25;15.93;;;29.50;58.40;;;;;;1871843;77;21033;-55
2021/08/05 06:19:03;;;;;;;23.05;12.95;;;29.60;58.20;;;;;;1871773;77;21098;-55
2021/08/05 06:21:32;;;;;;;36.90;18.25;;;29.60;58.00;;;;;;1871764;77;21041;-56
2021/08/05 06:24:01;;;;;;;30.77;15.78;;;29.70;57.80;;;;;;1871859;77;21013;-55
2021/08/05 06:26:31;;;;;;;27.60;15.18;;;29.70;57.60;;;;;;1871864;77;21041;-55
2021/08/05 06:29:01;;;;;;;27.95;15.00;;;29.70;57.20;;;;;;1871829;77;21009;-55
2021/08/05 06:31:30;;;;;;;37.67;14.90;;;29.80;57.50;;;;;;1871769;77;21032;-55
2021/08/05 06:33:59;;;;;;;26.27;14.18;;;29.80;57.20;;;;;;1871833;77;21049;-55
2021/08/05 06:36:29;;;;;;;27.60;14.78;;;29.80;56.90;;;;;;1871930;76;21037;-56
2021/08/05 06:38:59;;;;;;;25.43;14.53;;;29.90;56.80;;;;;;1871820;77;21107;-55
2021/08/05 06:41:28;;;;;;;28.57;14.87;;;30.00;57.20;;;;;;1871803;77;21029;-55
2021/08/05 06:43:58;;;;;;;27.65;16.90;;;30.00;56.50;;;;;;1871817;76;21460;-55
2021/08/05 06:46:28;;;;;;;34.85;17.45;;;30.10;56.30;;;;;;1871857;77;21525;-55
2021/08/05 06:48:57;;;;;;;61.30;33.42;;;30.10;56.10;;;;;;1871809;77;21069;-55
2021/08/05 06:51:27;;;;;;;44.75;25.70;;;30.20;55.90;;;;;;1871837;77;21033;-55
2021/08/05 06:53:56;;;;;;;23.62;14.50;;;30.30;55.90;;;;;;1871887;77;21021;-55
2021/08/05 06:56:26;;;;;;;25.40;13.30;;;30.30;55.80;;;;;;1871772;77;21091;-55
2021/08/05 06:58:55;;;;;;;21.12;13.08;;;30.40;55.50;;;;;;1871793;77;21137;-55
2021/08/05 07:01:25;;;;;;;22.48;12.43;;;30.50;55.50;;;;;;1871755;77;21077;-55
2021/08/05 07:03:55;;;;;;;21.85;13.70;;;30.50;55.50;;;;;;1871820;77;21029;-55
2021/08/05 07:06:25;;;;;;;29.80;15.00;;;30.60;55.60;;;;;;1871735;77;21072;-55
2021/08/05 07:08:54;;;;;;;33.85;18.27;;;30.70;55.40;;;;;;1871719;77;21099;-55
2021/08/05 07:11:24;;;;;;;34.50;18.82;;;30.70;55.00;;;;;;1871742;77;21028;-55
2021/08/05 07:13:53;;;;;;;20.75;11.53;;;30.90;54.80;;;;;;1871825;77;21033;-56
2021/08/05 07:16:23;;;;;;;15.05;10.28;;;30.90;54.70;;;;;;1871758;77;21138;-55
2021/08/05 07:18:52;;;;;;;13.03;9.30;;;30.90;54.20;;;;;;1871723;77;21079;-51
2021/08/05 07:21:22;;;;;;;16.23;9.98;;;31.00;54.40;;;;;;1870307;77;21025;-48
2021/08/05 07:23:51;;;;;;;20.02;11.10;;;31.00;54.10;;;;;;1871095;77;21025;-55
2021/08/05 07:26:21;;;;;;;14.25;9.68;;;30.90;54.10;;;;;;1871217;77;21154;-55
2021/08/05 07:28:50;;;;;;;16.52;10.25;;;31.00;54.10;;;;;;1870977;77;21130;-54
2021/08/05 07:31:20;;;;;;;16.40;9.98;;;31.10;53.20;;;;;;1871099;77;21077;-53
2021/08/05 07:33:50;;;;;;;26.60;12.20;;;31.10;52.90;;;;;;1871240;77;21147;-54
2021/08/05 07:36:19;;;;;;;18.00;10.03;;;31.10;52.90;;;;;;1871050;77;21076;-51
2021/08/05 07:38:48;;;;;;;17.62;10.68;;;31.20;52.60;;;;;;1871236;77;21428;-52
2021/08/05 07:41:18;;;;;;;17.15;8.75;;;31.30;51.80;;;;;;1871083;77;21440;-54
2021/08/05 07:43:48;;;;;;;17.02;10.05;;;31.40;51.40;;;;;;1870954;76;21028;-51
2021/08/05 07:46:17;;;;;;;13.15;8.80;;;31.40;50.90;;;;;;1871167;77;21463;-55
2021/08/05 07:48:46;;;;;;;18.25;9.80;;;31.40;50.90;;;;;;1871597;76;21148;-54
2021/08/05 07:51:15;;;;;;;14.78;9.60;;;31.50;50.80;;;;;;1857660;77;21076;-55
2021/08/05 07:53:45;;;;;;;16.35;10.05;;;31.50;50.80;;;;;;1857891;77;21110;-52
2021/08/05 07:56:14;;;;;;;11.10;8.70;;;31.60;50.80;;;;;;1857841;77;21036;-54
2021/08/05 07:58:43;;;;;;;15.28;9.23;;;31.80;50.70;;;;;;1857761;77;21083;-52
2021/08/05 08:01:13;;;;;;;14.55;9.23;;;31.90;50.60;;;;;;1857852;77;21088;-55
2021/08/05 08:03:42;;;;;;;14.95;9.25;;;31.90;50.60;;;;;;1857842;77;21107;-54
2021/08/05 08:06:12;;;;;;;12.05;9.50;;;31.90;50.90;;;;;;1857801;77;21149;-55
2021/08/05 08:08:41;;;;;;;16.82;9.25;;;32.00;50.80;;;;;;1857877;77;21071;-55
2021/08/05 08:11:11;;;;;;;11.28;8.88;;;32.00;50.80;;;;;;1857811;77;21048;-56
2021/08/05 08:13:41;;;;;;;12.07;8.75;;;32.10;50.70;;;;;;1857826;77;21031;-56
2021/08/05 08:16:11;;;;;;;18.73;9.23;;;32.10;50.80;;;;;;1857941;77;21024;-53
2021/08/05 08:18:40;;;;;;;11.85;8.80;;;32.10;50.90;;;;;;1858019;77;21507;-56
2021/08/05 08:21:09;;;;;;;14.13;9.10;;;32.20;50.60;;;;;;1857792;77;21534;-51
2021/08/05 08:23:38;;;;;;;12.68;8.35;;;32.20;50.20;;;;;;1857984;77;21091;-55
2021/08/05 08:26:08;;;;;;;14.35;8.98;;;32.30;50.40;;;;;;1857748;77;21096;-55
2021/08/05 08:28:37;;;;;;;15.38;8.50;;;32.40;49.80;;;;;;1857680;77;21035;-56
2021/08/05 08:31:07;;;;;;;12.00;8.23;;;32.40;49.70;;;;;;1857836;77;21044;-57
2021/08/05 08:33:36;;;;;;;9.98;8.53;;;32.50;49.80;;;;;;1857791;77;21111;-55
2021/08/05 08:36:06;;;;;;;15.20;9.18;;;32.50;49.60;;;;;;1857723;77;21088;-54
2021/08/05 08:38:35;;;;;;;12.25;8.93;;;32.60;49.10;;;;;;1875488;76;21061;-55
2021/08/05 08:41:04;;;;;;;16.12;8.73;;;32.50;49.20;;;;;;1889440;76;21042;-51
2021/08/05 08:43:33;;;;;;;13.75;9.48;;;32.60;49.70;;;;;;1889274;76;21112;-52
2021/08/05 08:46:03;;;;;;;13.98;9.00;;;32.70;49.40;;;;;;1891507;75;21145;-55
2021/08/05 08:48:33;;;;;;;15.53;8.48;;;32.80;49.40;;;;;;1892745;76;21067;-55
2021/08/05 08:51:03;;;;;;;20.52;8.95;;;32.90;49.40;;;;;;1892434;76;21032;-54
2021/08/05 08:53:35;;;;;;;16.40;8.98;;;32.90;49.00;;;;;;1892680;76;21047;-54
2021/08/05 08:56:06;;;;;;;13.10;7.85;;;32.90;49.00;;;;;;1891755;76;21536;-48
2021/08/05 08:58:36;;;;;;;12.58;8.68;;;32.90;48.30;;;;;;1892738;76;21075;-54
2021/08/05 09:01:06;;;;;;;11.55;8.30;;;32.90;48.30;;;;;;1892570;76;21016;-54
2021/08/05 09:03:35;;;;;;;12.18;8.48;;;32.90;48.40;;;;;;1892601;76;21079;-55
2021/08/05 09:06:04;;;;;;;17.15;8.93;;;32.90;47.70;;;;;;1892710;76;21055;-55
2021/08/05 09:08:35;;;;;;;17.20;9.45;;;33.00;47.80;;;;;;1892663;76;21082;-54
2021/08/05 09:11:04;;;;;;;13.85;7.72;;;33.10;48.10;;;;;;1892693;76;21567;-50
2021/08/05 09:13:33;;;;;;;11.40;8.90;;;33.20;48.00;;;;;;1892750;76;21097;-54
2021/08/05 09:16:03;;;;;;;10.60;8.40;;;33.30;48.00;;;;;;1892748;76;21140;-52
2021/08/05 09:18:42;;;;;;;11.83;8.10;;;33.40;47.50;;;;;;1892652;76;21004;-53
2021/08/05 09:21:23;;;;;;;11.90;8.63;;;33.40;47.20;;;;;;1892636;76;21435;-54
2021/08/05 09:23:59;;;;;;;12.15;8.25;;;33.50;47.30;;;;;;1892678;76;21075;-55
2021/08/05 09:26:31;;;;;;;9.45;7.30;;;33.40;46.80;;;;;;1892645;76;20976;-47
2021/08/05 09:29:22;;;;;;;10.18;7.85;;;33.40;46.60;;;;;;1892602;76;21067;-51
2021/08/05 09:31:58;;;;;;;10.63;8.38;;;33.40;46.50;;;;;;1892044;75;21102;-48
2021/08/05 09:34:40;;;;;;;16.95;8.35;;;33.40;45.90;;;;;;1892529;76;21020;-52
2021/08/05 09:37:11;;;;;;;13.38;7.25;;;33.50;45.50;;;;;;1892712;76;21439;-53
2021/08/05 09:39:42;;;;;;;11.53;7.80;;;33.60;45.00;;;;;;1892729;76;21012;-49
2021/08/05 09:42:13;;;;;;;11.05;7.20;;;33.70;45.10;;;;;;1892676;76;21149;-51
2021/08/05 09:44:45;;;;;;;16.27;7.62;;;33.80;45.30;;;;;;1860168;76;21125;-51
2021/08/05 09:47:18;;;;;;;15.08;7.45;;;33.80;45.50;;;;;;1886613;74;21157;-49
2021/08/05 09:49:50;;;;;;;9.40;7.55;;;33.90;45.70;;;;;;1886292;76;21443;-53
2021/08/05 09:52:34;;;;;;;15.93;7.95;;;34.00;45.50;;;;;;1886093;76;21044;-50
2021/08/05 09:55:05;;;;;;;11.68;7.95;;;34.10;45.40;;;;;;1886343;76;21425;-53
2021/08/05 09:57:37;;;;;;;14.03;7.42;;;34.00;45.60;;;;;;1886178;76;21074;-51
2021/08/05 10:00:12;;;;;;;11.57;6.95;;;34.00;45.80;;;;;;1886284;76;21012;-49
2021/08/05 10:02:46;;;;;;;7.75;6.67;;;34.00;45.10;;;;;;1885985;76;21220;-48
2021/08/05 10:05:17;;;;;;;14.95;7.20;;;34.10;44.70;;;;;;1886271;76;21416;-52
2021/08/05 10:07:51;;;;;;;12.85;8.33;;;34.10;44.30;;;;;;1886486;76;21012;-49
2021/08/05 10:10:24;;;;;;;11.30;7.87;;;34.20;44.70;;;;;;1886271;76;21078;-52
2021/08/05 10:13:01;;;;;;;16.15;6.83;;;34.30;45.00;;;;;;1886389;76;21510;-46
2021/08/05 10:15:31;;;;;;;9.20;6.83;;;34.40;43.80;;;;;;1886212;76;21079;-50
2021/08/05 10:18:01;;;;;;;17.42;7.75;;;34.40;43.90;;;;;;1886174;76;21072;-49
2021/08/05 10:20:32;;;;;;;13.53;7.75;;;34.40;44.10;;;;;;1885941;76;21032;-48
2021/08/05 10:23:02;;;;;;;14.40;8.18;;;34.50;44.00;;;;;;1886900;76;21024;-53
2021/08/05 10:25:31;;;;;;;11.48;7.40;;;34.40;43.40;;;;;;1886801;76;21078;-53
2021/08/05 10:28:01;;;;;;;9.98;7.30;;;34.40;43.50;;;;;;1887062;76;21016;-54
2021/08/05 10:30:32;;;;;;;13.83;6.78;;;34.40;43.90;;;;;;1886919;76;21012;-53
2021/08/05 10:33:02;;;;;;;15.55;8.25;;;34.50;43.90;;;;;;1886817;76;21008;-53
2021/08/05 10:35:31;;;;;;;19.23;9.10;;;34.60;43.90;;;;;;1886796;76;21082;-54
2021/08/05 10:38:01;;;;;;;20.75;10.28;;;34.70;43.70;;;;;;1886688;76;21063;-53
2021/08/05 10:40:31;;;;;;;12.15;6.97;;;34.80;43.50;;;;;;1886697;76;21021;-53
2021/08/05 10:43:01;;;;;;;11.65;7.97;;;34.90;42.50;;;;;;1870707;76;21032;-53
2021/08/05 10:45:32;;;;;;;15.90;7.85;;;34.90;42.60;;;;;;1862836;77;21036;-53
2021/08/05 10:48:02;;;;;;;11.85;7.62;;;34.90;43.70;;;;;;1862967;77;21033;-53
2021/08/05 10:50:33;;;;;;;27.58;8.68;;;35.00;44.20;;;;;;1862860;77;21107;-53
2021/08/05 10:53:02;;;;;;;11.97;6.33;;;35.00;44.40;;;;;;1863037;77;21045;-53
2021/08/05 10:55:36;;;;;;;14.68;6.17;;;35.00;42.00;;;;;;1862783;77;21136;-52
2021/08/05 10:58:12;;;;;;;;;;;35.00;41.20;;;;;;1865685;77;21123;-53
2021/08/05 11:00:55;;;;;;;10.65;6.62;;;34.90;40.80;;;;;;1863040;77;20094;-54
2021/08/05 11:03:40;;;;;;;11.60;6.60;;;35.00;41.10;;;;;;1863015;77;21040;-52
2021/08/05 11:06:06;;;;;;;10.88;5.97;;;35.10;40.80;;;;;;1856795;76;21089;-53
2021/08/05 11:08:35;;;;;;;10.30;5.87;;;35.10;40.50;;;;;;1862890;77;21040;-52
2021/08/05 11:11:26;;;;;;;13.53;6.70;;;35.00;40.20;;;;;;1862852;77;21166;-52
2021/08/05 11:14:00;;;;;;;10.90;5.58;;;35.00;40.00;;;;;;1862962;77;21115;-53
2021/08/05 11:16:54;;;;;;;9.70;6.12;;;35.00;40.20;;;;;;1862940;77;21047;-53
2021/08/05 11:19:31;;;;;;;10.50;6.30;;;35.00;40.10;;;;;;1862980;76;21111;-53
2021/08/05 11:22:21;;;;;;;11.68;5.80;;;35.00;40.40;;;;;;1862951;77;21107;-54
2021/08/05 11:24:53;;;;;;;25.68;23.18;;;35.00;40.30;;;;;;1804774;79;21037;-53
2021/08/05 11:27:23;;;;;;;26.85;24.02;;;35.00;40.20;;;;;;1804891;79;21119;-53
2021/08/05 11:29:53;;;;;;;35.33;23.83;;;35.00;40.40;;;;;;1828031;77;21111;-53
2021/08/05 11:32:27;;;;;;;13.50;6.83;;;35.00;40.50;;;;;;1862877;77;21095;-53
2021/08/05 11:35:07;;;;;;;12.45;6.72;;;35.00;40.50;;;;;;1862891;77;21153;-52
2021/08/05 11:37:38;;;;;;;12.15;6.00;;;35.10;40.40;;;;;;1862975;77;21052;-53
2021/08/05 11:40:08;;;;;;;12.15;7.62;;;35.10;40.30;;;;;;1858704;77;21045;-53
2021/08/05 11:42:39;;;;;;;12.50;5.75;;;35.20;40.80;;;;;;1862873;77;21108;-52
2021/08/05 11:45:11;;;;;;;12.58;6.28;;;35.30;39.80;;;;;;1863007;77;21040;-53
2021/08/05 11:47:45;;;;;;;13.50;6.28;;;35.30;39.50;;;;;;1882250;75;21114;-51
2021/08/05 11:50:19;;;;;;;14.07;6.92;;;35.30;39.70;;;;;;1893337;76;21020;-54
2021/08/05 11:52:49;;;;;;;12.15;7.22;;;35.30;39.90;;;;;;1893374;76;21043;-53
2021/08/05 11:55:28;;;;;;;12.28;6.85;;;35.40;40.20;;;;;;1893133;76;21000;-54
2021/08/05 11:58:01;;;;;;;8.55;6.87;;;35.40;41.00;;;;;;1893209;76;21028;-55
2021/08/05 12:00:35;;;;;;;12.00;6.70;;;35.50;40.80;;;;;;1893328;76;21070;-54
2021/08/05 12:03:08;;;;;;;11.08;5.85;;;35.50;40.20;;;;;;1893415;76;21004;-54
2021/08/05 12:05:42;;;;;;;9.38;6.03;;;35.50;39.90;;;;;;1893403;76;21055;-49
2021/08/05 12:08:13;;;;;;;11.80;6.75;;;35.60;40.00;;;;;;1893537;76;21009;-49
2021/08/05 12:10:43;;;;;;;13.75;6.42;;;35.60;39.70;;;;;;1893370;76;21008;-48
2021/08/05 12:13:18;;;;;;;11.88;6.10;;;35.60;39.60;;;;;;1892404;76;21086;-51
2021/08/05 12:15:50;;;;;;;9.88;6.00;;;35.60;39.40;;;;;;1893165;76;21124;-52
2021/08/05 12:18:22;;;;;;;11.40;6.60;;;35.60;39.50;;;;;;1893316;76;21427;-51
2021/08/05 12:20:54;;;;;;;12.10;6.00;;;35.50;38.90;;;;;;1893001;76;21025;-50
2021/08/05 12:23:31;;;;;;;8.98;6.08;;;35.50;39.20;;;;;;1893240;76;21116;-47
2021/08/05 12:28:36;;;;;;;6.35;5.47;;;35.40;39.20;;;;;;1893254;76;21523;-47
2021/08/05 12:31:13;;;;;;;8.03;6.00;;;35.40;39.20;;;;;;1893305;76;21459;-48
2021/08/05 12:33:44;;;;;;;9.65;5.67;;;35.50;39.40;;;;;;1892828;76;21050;-51
2021/08/05 12:36:21;;;;;;;11.90;5.60;;;35.50;39.20;;;;;;1893263;76;21012;-52
2021/08/05 12:39:09;;;;;;;9.90;6.17;;;35.50;38.70;;;;;;1892576;76;21148;-51
2021/08/05 12:41:37;;;;;;;8.75;6.62;;;35.70;38.60;;;;;;1891629;76;21094;-52
2021/08/05 12:44:09;;;;;;;13.58;6.47;;;35.70;38.70;;;;;;1893282;76;21063;-51
2021/08/05 12:46:41;;;;;;;11.97;6.75;;;35.70;38.60;;;;;;1893493;76;21024;-51
2021/08/05 12:49:11;;;;;;;13.10;6.53;;;35.70;38.60;;;;;;1890127;76;21195;-50
2021/08/05 12:51:40;;;;;;;11.03;6.87;;;35.70;38.50;;;;;;1890174;76;21101;-51
2021/08/05 12:54:14;;;;;;;8.73;6.70;;;35.80;38.50;;;;;;1890303;76;21043;-51